Time;durP1;ratioP1;P1;durP2;ratioP2;P2;SDS_P1;SDS_P2;PMS_P1;PMS_P2;Temp;Humidity;BMP_temperature;BMP_pressure;BME280_temperature;BME280_humidity;BME280_pressure;Samples;Min_cycle;Max_cycle;Signal;HPM_P1;HPM_P2
2022/09/07 00:00:43;;;;;;;2.37;1.70;;;27.30;63.30;;;;;;4973810;28;20410;-70
2022/09/07 00:03:10;;;;;;;5.67;1.90;;;27.30;63.50;;;;;;4973361;28;20496;-71
2022/09/07 00:05:45;;;;;;;1.90;1.60;;;27.30;63.50;;;;;;4972152;28;20503;-71
2022/09/07 00:08:12;;;;;;;1.70;1.40;;;27.20;63.60;;;;;;4943734;28;20484;-68
2022/09/07 00:10:40;;;;;;;4.67;1.93;;;27.30;63.80;;;;;;4972815;28;20516;-73
2022/09/07 00:13:07;;;;;;;5.20;1.77;;;27.20;64.00;;;;;;4947059;29;20546;-73
2022/09/07 00:15:38;;;;;;;2.13;1.57;;;27.20;64.00;;;;;;4970704;28;20422;-73
2022/09/07 00:18:07;;;;;;;3.47;1.87;;;27.20;63.90;;;;;;4971957;28;20445;-73
2022/09/07 00:20:35;;;;;;;4.60;2.03;;;27.20;63.80;;;;;;4935611;29;20428;-73
2022/09/07 00:23:04;;;;;;;3.43;1.40;;;27.20;63.80;;;;;;4933468;29;20420;-73
2022/09/07 00:25:39;;;;;;;4.90;2.10;;;27.20;63.90;;;;;;4968086;28;21022;-73
2022/09/07 00:28:10;;;;;;;4.97;1.93;;;27.10;63.80;;;;;;4972171;28;20425;-73
2022/09/07 00:30:40;;;;;;;4.43;1.80;;;27.10;64.00;;;;;;4938950;29;20474;-73
2022/09/07 00:33:06;;;;;;;3.90;1.93;;;27.10;64.10;;;;;;4952193;29;20550;-73
2022/09/07 00:35:42;;;;;;;3.50;1.57;;;27.10;64.20;;;;;;4969746;28;20426;-73
2022/09/07 00:38:10;;;;;;;4.10;1.73;;;27.10;64.30;;;;;;4962739;28;20828;-73
2022/09/07 00:40:37;;;;;;;4.67;2.00;;;27.10;64.40;;;;;;4969794;28;20410;-70
2022/09/07 00:43:04;;;;;;;3.83;1.77;;;27.10;64.40;;;;;;4971926;28;20406;-72
2022/09/07 00:45:31;;;;;;;3.87;1.83;;;27.10;64.60;;;;;;4956024;28;20462;-72
2022/09/07 00:48:08;;;;;;;4.60;2.17;;;27.10;64.80;;;;;;4935920;29;20438;-73
2022/09/07 00:50:53;;;;;;;2.90;1.53;;;27.00;64.80;;;;;;4968793;28;20418;-71
2022/09/07 00:53:24;;;;;;;4.30;1.87;;;27.00;64.90;;;;;;4971935;28;20828;-73
2022/09/07 00:55:56;;;;;;;3.90;1.53;;;27.00;65.00;;;;;;4933827;29;20423;-70
2022/09/07 00:58:23;;;;;;;7.77;2.10;;;27.00;65.10;;;;;;4933248;29;20935;-72
2022/09/07 01:00:51;;;;;;;4.77;2.43;;;27.00;65.20;;;;;;4971476;28;20415;-73
2022/09/07 01:03:31;;;;;;;5.73;1.80;;;27.00;65.30;;;;;;4972879;28;20465;-72
2022/09/07 01:06:03;;;;;;;5.80;1.80;;;27.00;65.70;;;;;;4952964;28;20797;-72
2022/09/07 01:08:34;;;;;;;4.33;2.00;;;27.00;66.00;;;;;;4933468;28;20455;-72
2022/09/07 01:11:00;;;;;;;2.30;1.50;;;27.00;66.20;;;;;;4955463;28;20457;-73
2022/09/07 01:13:29;;;;;;;2.73;1.60;;;26.90;66.30;;;;;;4971566;28;20433;-72
2022/09/07 01:16:16;;;;;;;5.20;1.33;;;26.90;66.50;;;;;;4933934;28;20483;-73
2022/09/07 01:19:12;;;;;;;6.07;2.20;;;26.90;66.60;;;;;;4967160;28;20400;-73
2022/09/07 01:21:56;;;;;;;2.43;1.43;;;26.90;67.00;;;;;;4971050;28;20458;-71
2022/09/07 01:24:41;;;;;;;3.00;1.70;;;26.90;66.90;;;;;;4981847;28;20931;-73
2022/09/07 01:28:10;;;;;;;3.03;1.63;;;26.80;66.70;;;;;;4952102;29;20407;-73
2022/09/07 01:30:44;;;;;;;2.73;2.27;;;26.80;66.60;;;;;;4951302;28;20508;-72
2022/09/07 01:33:12;;;;;;;5.00;1.70;;;26.80;66.70;;;;;;4954042;28;20660;-73
2022/09/07 01:36:16;;;;;;;4.57;1.93;;;26.80;66.90;;;;;;4949399;29;20439;-72
2022/09/07 01:38:47;;;;;;;3.43;1.30;;;26.70;66.70;;;;;;4933471;28;20504;-72
2022/09/07 01:41:25;;;;;;;3.93;1.50;;;26.70;66.60;;;;;;4971585;28;20412;-72
2022/09/07 01:44:25;;;;;;;4.90;1.73;;;26.70;66.70;;;;;;4970948;28;20955;-73
2022/09/07 01:47:04;;;;;;;2.57;1.60;;;26.70;66.80;;;;;;4948677;28;20470;-73
2022/09/07 01:49:59;;;;;;;3.53;1.80;;;26.70;66.90;;;;;;4958995;28;20441;-73
2022/09/07 01:52:43;;;;;;;4.03;1.87;;;26.70;67.00;;;;;;4954926;28;20492;-73
2022/09/07 01:55:20;;;;;;;2.90;1.50;;;26.70;67.10;;;;;;4959568;28;20461;-73
2022/09/07 01:57:55;;;;;;;5.07;1.70;;;26.70;67.20;;;;;;4952009;29;20451;-73
2022/09/07 02:00:24;;;;;;;3.93;1.43;;;26.60;67.20;;;;;;4967014;28;20986;-73
2022/09/07 02:03:13;;;;;;;1.83;1.50;;;26.60;67.30;;;;;;4957128;28;20438;-73
2022/09/07 02:05:45;;;;;;;1.23;1.13;;;26.60;67.40;;;;;;4958854;28;20426;-72
2022/09/07 02:08:51;;;;;;;2.60;1.30;;;26.60;67.40;;;;;;4969854;28;20438;-73
2022/09/07 02:11:29;;;;;;;1.77;1.60;;;26.60;67.50;;;;;;4897455;29;21013;-72
2022/09/07 02:14:28;;;;;;;2.60;1.40;;;26.60;68.40;;;;;;4890748;29;20471;-73
2022/09/07 02:17:02;;;;;;;3.07;1.40;;;26.60;67.70;;;;;;4900145;29;20519;-73
2022/09/07 02:19:35;;;;;;;4.57;1.40;;;26.60;68.00;;;;;;4908160;29;21009;-72
2022/09/07 02:22:12;;;;;;;3.47;1.33;;;26.50;68.00;;;;;;4900332;29;20542;-72
2022/09/07 02:24:45;;;;;;;2.40;1.73;;;26.50;68.00;;;;;;4901943;29;20457;-72
2022/09/07 02:27:20;;;;;;;1.90;1.23;;;26.50;68.10;;;;;;4881333;29;20478;-73
2022/09/07 02:29:54;;;;;;;4.70;1.40;;;26.50;68.00;;;;;;4881009;29;20450;-73
2022/09/07 02:32:20;;;;;;;4.40;1.53;;;26.50;68.10;;;;;;4881355;29;20488;-72
2022/09/07 02:34:48;;;;;;;2.27;1.47;;;26.40;68.00;;;;;;4896845;29;20476;-73
2022/09/07 02:37:19;;;;;;;2.70;1.40;;;26.40;68.10;;;;;;4915771;29;20419;-73
2022/09/07 02:39:46;;;;;;;2.63;1.60;;;26.40;68.10;;;;;;4886144;29;20899;-73
2022/09/07 02:42:14;;;;;;;2.63;1.20;;;26.40;68.10;;;;;;4929680;29;20443;-73
2022/09/07 02:44:46;;;;;;;2.30;1.83;;;26.40;68.20;;;;;;4955216;28;21020;-72
2022/09/07 02:47:38;;;;;;;1.83;1.63;;;26.30;68.20;;;;;;4968760;28;20439;-73
2022/09/07 02:50:25;;;;;;;5.33;1.20;;;26.30;68.20;;;;;;4967668;28;20415;-73
2022/09/07 02:53:15;;;;;;;3.00;1.40;;;26.30;68.30;;;;;;4938653;29;20473;-72
2022/09/07 02:56:05;;;;;;;2.27;1.50;;;26.30;68.40;;;;;;4956913;28;20747;-72
2022/09/07 02:58:50;;;;;;;2.13;1.43;;;26.30;68.40;;;;;;4968339;28;20446;-72
2022/09/07 03:01:53;;;;;;;2.87;1.60;;;26.30;68.50;;;;;;4960462;28;20422;-73
2022/09/07 03:04:37;;;;;;;2.03;1.20;;;26.30;69.40;;;;;;4973510;28;20457;-73
2022/09/07 03:07:12;;;;;;;1.83;1.60;;;26.20;68.60;;;;;;4942939;29;20448;-73
2022/09/07 03:09:45;;;;;;;4.17;1.70;;;26.20;68.70;;;;;;4964529;28;20929;-72
2022/09/07 03:12:11;;;;;;;2.13;1.50;;;26.20;68.80;;;;;;4953233;28;20450;-71
2022/09/07 03:14:43;;;;;;;2.10;1.60;;;26.20;68.80;;;;;;4974639;28;20947;-73
2022/09/07 03:17:12;;;;;;;2.33;1.30;;;26.20;68.90;;;;;;4961184;28;20458;-73
2022/09/07 03:19:41;;;;;;;2.70;1.90;;;26.10;68.80;;;;;;4951304;28;20425;-73
2022/09/07 03:22:09;;;;;;;1.50;1.23;;;26.10;68.90;;;;;;4970106;28;20789;-72
2022/09/07 03:24:37;;;;;;;2.97;1.40;;;26.10;68.90;;;;;;4938174;29;20854;-72
2022/09/07 03:27:03;;;;;;;1.70;1.60;;;26.10;68.90;;;;;;4972492;28;20433;-73
2022/09/07 03:29:30;;;;;;;2.60;1.70;;;26.10;69.00;;;;;;4978952;28;20439;-72
2022/09/07 03:31:58;;;;;;;1.43;1.33;;;26.10;69.10;;;;;;4965157;28;20457;-73
2022/09/07 03:34:24;;;;;;;1.53;1.43;;;26.10;69.10;;;;;;4962164;28;20448;-73
2022/09/07 03:36:50;;;;;;;2.00;1.60;;;26.10;69.20;;;;;;4972841;28;20834;-72
2022/09/07 03:39:22;;;;;;;1.93;1.30;;;26.00;69.10;;;;;;4965233;28;20498;-72
2022/09/07 03:41:48;;;;;;;3.20;1.50;;;26.10;69.20;;;;;;4956217;28;20489;-72
2022/09/07 03:44:15;;;;;;;2.70;1.63;;;26.00;69.20;;;;;;4959810;28;20537;-72
2022/09/07 03:46:43;;;;;;;2.30;1.70;;;26.00;69.30;;;;;;4956787;28;20481;-72
2022/09/07 03:49:09;;;;;;;2.17;1.70;;;26.00;69.40;;;;;;4966045;28;20430;-72
2022/09/07 03:51:35;;;;;;;3.23;1.97;;;26.00;69.40;;;;;;4967184;28;20446;-72
2022/09/07 03:54:01;;;;;;;2.33;1.77;;;26.00;69.50;;;;;;4948819;29;20534;-73
2022/09/07 03:56:27;;;;;;;2.03;1.90;;;26.00;69.70;;;;;;4950127;29;20514;-72
2022/09/07 03:58:53;;;;;;;2.13;2.00;;;25.90;69.60;;;;;;4956735;28;20995;-73
2022/09/07 04:01:26;;;;;;;2.13;1.60;;;25.90;69.60;;;;;;4942638;28;20447;-73
2022/09/07 04:04:01;;;;;;;2.20;2.00;;;25.90;69.60;;;;;;4956819;28;20452;-73
2022/09/07 04:06:27;;;;;;;3.67;1.80;;;25.90;69.70;;;;;;4972375;28;20483;-72
2022/09/07 04:08:56;;;;;;;3.07;2.20;;;25.80;69.60;;;;;;4969950;28;20440;-73
2022/09/07 04:11:25;;;;;;;4.77;2.20;;;25.90;69.80;;;;;;4959466;28;20957;-73
2022/09/07 04:13:53;;;;;;;2.73;1.80;;;25.90;69.80;;;;;;4956340;28;20466;-71
2022/09/07 04:16:26;;;;;;;3.33;2.00;;;25.80;69.80;;;;;;4972418;28;20445;-73
2022/09/07 04:18:57;;;;;;;4.30;2.20;;;25.80;69.80;;;;;;4970745;28;20419;-73
2022/09/07 04:21:28;;;;;;;3.43;2.20;;;25.80;69.90;;;;;;4972080;28;20453;-73
2022/09/07 04:23:54;;;;;;;3.97;2.83;;;25.80;69.80;;;;;;4954456;28;20459;-73
2022/09/07 04:26:25;;;;;;;2.33;1.93;;;25.80;69.80;;;;;;4972530;28;20473;-71
2022/09/07 04:28:55;;;;;;;3.83;2.80;;;25.70;69.80;;;;;;4972949;28;20455;-72
2022/09/07 04:31:22;;;;;;;3.50;2.10;;;25.70;69.80;;;;;;4961038;28;20431;-72
2022/09/07 04:33:50;;;;;;;4.13;2.20;;;25.70;69.90;;;;;;4952908;28;20450;-72
2022/09/07 04:36:17;;;;;;;3.50;2.40;;;25.70;69.90;;;;;;4937048;29;20469;-71
2022/09/07 04:38:52;;;;;;;2.73;2.53;;;25.70;69.90;;;;;;4933943;28;20428;-71
2022/09/07 04:41:21;;;;;;;3.00;2.20;;;25.70;70.00;;;;;;4964619;28;20798;-70
2022/09/07 04:43:56;;;;;;;3.27;2.23;;;25.60;70.00;;;;;;4955694;28;20446;-71
2022/09/07 04:46:27;;;;;;;5.63;2.00;;;25.60;70.00;;;;;;4964382;28;20457;-71
2022/09/07 04:49:07;;;;;;;2.70;2.00;;;25.60;70.00;;;;;;4971573;28;20844;-71
2022/09/07 04:51:36;;;;;;;4.50;2.10;;;25.60;70.00;;;;;;4937095;29;20470;-70
2022/09/07 04:54:03;;;;;;;3.20;2.10;;;25.60;70.10;;;;;;4955559;28;20445;-70
2022/09/07 04:56:30;;;;;;;3.10;2.03;;;25.60;70.20;;;;;;4940680;29;20478;-71
2022/09/07 04:58:59;;;;;;;2.37;2.10;;;25.50;70.10;;;;;;4952745;28;20504;-70
2022/09/07 05:01:27;;;;;;;2.97;2.53;;;25.60;70.20;;;;;;4960133;28;20536;-71
2022/09/07 05:03:59;;;;;;;4.27;2.47;;;25.50;70.20;;;;;;4952983;28;20492;-70
2022/09/07 05:06:30;;;;;;;4.60;2.40;;;25.50;70.30;;;;;;4972014;28;20445;-72
2022/09/07 05:08:57;;;;;;;2.37;2.00;;;25.50;70.30;;;;;;4971514;28;20480;-72
2022/09/07 05:11:24;;;;;;;2.23;1.80;;;25.50;70.40;;;;;;4960197;28;20512;-72
2022/09/07 05:13:57;;;;;;;2.57;2.37;;;25.50;70.40;;;;;;4968592;28;20442;-73
2022/09/07 05:16:24;;;;;;;2.63;1.93;;;25.50;70.40;;;;;;4953095;29;20422;-71
2022/09/07 05:18:55;;;;;;;3.70;2.30;;;25.40;70.30;;;;;;4961944;28;20425;-72
2022/09/07 05:21:27;;;;;;;2.20;2.00;;;25.40;70.30;;;;;;4937182;29;20465;-71
2022/09/07 05:23:55;;;;;;;2.93;1.87;;;25.40;70.30;;;;;;4948981;28;20509;-70
2022/09/07 05:26:26;;;;;;;2.60;1.83;;;25.40;70.40;;;;;;4968821;28;20470;-71
2022/09/07 05:28:52;;;;;;;2.60;2.27;;;25.40;70.50;;;;;;4954339;28;20534;-76
2022/09/07 05:31:22;;;;;;;2.40;2.20;;;25.40;70.60;;;;;;4957354;28;20798;-71
2022/09/07 05:33:52;;;;;;;2.90;2.37;;;25.40;70.70;;;;;;4944884;28;20553;-72
2022/09/07 05:36:24;;;;;;;2.77;2.17;;;25.40;70.70;;;;;;4965744;28;20759;-72
2022/09/07 05:38:52;;;;;;;3.20;2.67;;;25.30;70.60;;;;;;4962855;28;20441;-72
2022/09/07 05:41:20;;;;;;;2.80;2.23;;;25.30;70.90;;;;;;4967911;28;20973;-74
2022/09/07 05:43:49;;;;;;;3.40;2.60;;;25.30;70.90;;;;;;4972685;28;20449;-72
2022/09/07 05:46:16;;;;;;;2.80;2.30;;;25.30;70.90;;;;;;4974909;28;20997;-73
2022/09/07 05:48:43;;;;;;;3.60;2.77;;;25.30;71.00;;;;;;4974936;28;20450;-72
2022/09/07 05:51:11;;;;;;;2.60;2.27;;;25.20;71.00;;;;;;4974971;28;20481;-71
2022/09/07 05:53:39;;;;;;;3.77;2.23;;;25.20;71.00;;;;;;4958746;28;20503;-71
2022/09/07 05:56:08;;;;;;;2.77;2.53;;;25.20;71.10;;;;;;4976154;28;20465;-72
2022/09/07 05:58:35;;;;;;;4.00;2.87;;;25.20;71.10;;;;;;4970970;28;20441;-73
2022/09/07 06:01:11;;;;;;;2.43;2.23;;;25.20;71.20;;;;;;4974658;28;20516;-72
2022/09/07 06:03:39;;;;;;;3.73;2.73;;;25.20;71.30;;;;;;4975969;28;20437;-71
2022/09/07 06:06:08;;;;;;;2.77;2.57;;;25.20;71.30;;;;;;4975848;28;20493;-72
2022/09/07 06:08:38;;;;;;;3.30;2.53;;;25.20;71.50;;;;;;4969730;28;20422;-71
2022/09/07 06:11:09;;;;;;;3.30;2.50;;;25.20;71.50;;;;;;4954950;28;20443;-72
2022/09/07 06:13:38;;;;;;;3.13;2.90;;;25.20;71.60;;;;;;4955367;29;20446;-72
2022/09/07 06:16:09;;;;;;;3.07;2.77;;;25.10;71.50;;;;;;4956419;29;20926;-71
2022/09/07 06:18:42;;;;;;;3.30;3.00;;;25.10;71.40;;;;;;4939707;29;20402;-71
2022/09/07 06:21:09;;;;;;;2.93;2.60;;;25.10;71.60;;;;;;4939294;29;20411;-76
2022/09/07 06:23:40;;;;;;;2.93;2.63;;;25.10;71.50;;;;;;4955117;28;20954;-72
2022/09/07 06:26:09;;;;;;;4.90;2.80;;;25.10;71.40;;;;;;4955223;29;20437;-71
2022/09/07 06:28:45;;;;;;;3.97;3.20;;;25.10;71.10;;;;;;4956121;29;20411;-72
2022/09/07 06:31:13;;;;;;;3.40;2.80;;;25.00;70.90;;;;;;4955085;29;20395;-72
2022/09/07 06:33:46;;;;;;;3.13;2.73;;;25.00;71.10;;;;;;4954861;29;21007;-72
2022/09/07 06:36:21;;;;;;;3.10;2.60;;;25.00;70.90;;;;;;4954929;29;20470;-72
2022/09/07 06:38:50;;;;;;;3.97;3.57;;;25.00;71.00;;;;;;4954736;29;20404;-71
2022/09/07 06:41:24;;;;;;;2.80;2.60;;;25.00;71.00;;;;;;4963532;28;20911;-72
2022/09/07 06:43:55;;;;;;;6.60;3.10;;;25.00;70.70;;;;;;4935608;29;20487;-74
2022/09/07 06:46:27;;;;;;;3.23;2.93;;;25.00;70.80;;;;;;4935264;29;20454;-72
2022/09/07 06:48:54;;;;;;;3.40;3.10;;;25.00;70.80;;;;;;4936716;29;20444;-71
2022/09/07 06:51:25;;;;;;;3.10;2.80;;;25.00;70.90;;;;;;4946730;28;20443;-72
2022/09/07 06:53:55;;;;;;;3.10;2.80;;;25.00;70.80;;;;;;4975617;28;20448;-71
2022/09/07 06:56:26;;;;;;;6.13;3.60;;;25.00;71.00;;;;;;4973922;28;20502;-70
2022/09/07 06:58:56;;;;;;;3.80;3.10;;;24.90;71.50;;;;;;4975474;28;20454;-72
2022/09/07 07:01:24;;;;;;;3.90;3.43;;;24.90;71.80;;;;;;4974910;28;20410;-71
2022/09/07 07:03:52;;;;;;;3.93;3.13;;;24.90;71.60;;;;;;4973684;28;20438;-72
2022/09/07 07:06:18;;;;;;;3.43;3.13;;;24.90;71.80;;;;;;4959092;28;20549;-70
2022/09/07 07:08:45;;;;;;;3.07;2.77;;;24.90;72.00;;;;;;4957800;28;20539;-71
2022/09/07 07:11:14;;;;;;;4.87;3.00;;;24.90;72.10;;;;;;4965933;28;20829;-71
2022/09/07 07:13:44;;;;;;;3.90;3.30;;;24.90;72.20;;;;;;4955628;29;20461;-71
2022/09/07 07:16:13;;;;;;;3.27;2.97;;;24.90;72.20;;;;;;4955261;28;20414;-71
2022/09/07 07:18:42;;;;;;;3.40;3.00;;;24.90;72.30;;;;;;4953846;29;20494;-71
2022/09/07 07:21:12;;;;;;;3.27;2.83;;;24.90;72.30;;;;;;4938438;29;20459;-72
2022/09/07 07:23:41;;;;;;;4.30;2.90;;;24.90;72.20;;;;;;4937446;29;21067;-73
2022/09/07 07:26:12;;;;;;;2.67;2.47;;;24.90;72.20;;;;;;4954054;29;20450;-72
2022/09/07 07:28:44;;;;;;;3.00;2.70;;;24.90;72.40;;;;;;4954048;29;20501;-72
2022/09/07 07:31:13;;;;;;;3.33;3.03;;;24.90;72.50;;;;;;4969885;28;21171;-73
2022/09/07 07:33:42;;;;;;;3.10;2.80;;;24.90;72.70;;;;;;4936556;29;20952;-72
2022/09/07 07:36:12;;;;;;;3.00;2.70;;;24.90;72.80;;;;;;4937590;29;20447;-72
2022/09/07 07:38:43;;;;;;;3.57;2.53;;;24.80;72.40;;;;;;4952552;29;20461;-71
2022/09/07 07:41:09;;;;;;;3.83;2.97;;;24.80;72.60;;;;;;4954629;29;20446;-71
2022/09/07 07:43:37;;;;;;;2.80;2.60;;;24.80;72.90;;;;;;4969526;28;20435;-71
2022/09/07 07:46:06;;;;;;;3.47;2.90;;;24.80;72.90;;;;;;4954842;28;20446;-71
2022/09/07 07:48:34;;;;;;;3.57;3.27;;;24.80;73.00;;;;;;4953126;29;20423;-71
2022/09/07 07:51:12;;;;;;;3.67;3.17;;;24.80;73.30;;;;;;4969185;28;20885;-71
2022/09/07 07:53:39;;;;;;;3.50;3.20;;;24.80;73.00;;;;;;4953334;28;20875;-71
2022/09/07 07:56:09;;;;;;;3.30;3.00;;;24.80;73.20;;;;;;4968865;28;20509;-71
2022/09/07 07:58:38;;;;;;;3.90;3.37;;;24.70;73.10;;;;;;4968735;28;20498;-71
2022/09/07 08:01:07;;;;;;;3.77;2.87;;;24.80;74.10;;;;;;4952876;29;20419;-72
2022/09/07 08:03:39;;;;;;;3.20;3.00;;;24.80;73.40;;;;;;4936988;29;20992;-71
2022/09/07 08:06:08;;;;;;;3.20;2.90;;;24.70;73.30;;;;;;4953253;28;20506;-71
2022/09/07 08:08:36;;;;;;;3.33;3.03;;;24.70;73.30;;;;;;4969011;28;20766;-71
2022/09/07 08:11:07;;;;;;;3.27;2.93;;;24.70;73.60;;;;;;4937018;29;20979;-71
2022/09/07 08:13:39;;;;;;;3.40;3.00;;;24.70;73.70;;;;;;4968338;28;20466;-72
2022/09/07 08:16:08;;;;;;;2.50;2.20;;;24.70;73.60;;;;;;4952938;29;20438;-72
2022/09/07 08:18:39;;;;;;;3.00;2.50;;;24.70;73.70;;;;;;4953693;28;20450;-71
2022/09/07 08:21:13;;;;;;;3.20;2.87;;;24.70;73.60;;;;;;4954199;28;20490;-71
2022/09/07 08:23:40;;;;;;;3.20;2.90;;;24.70;73.80;;;;;;4953080;28;20446;-72
2022/09/07 08:26:06;;;;;;;2.30;2.10;;;24.70;73.40;;;;;;4953119;28;20482;-72
2022/09/07 08:28:37;;;;;;;3.00;2.20;;;24.70;73.10;;;;;;4968534;28;20772;-72
2022/09/07 08:31:11;;;;;;;2.83;2.63;;;24.70;73.50;;;;;;4952997;29;20435;-73
2022/09/07 08:33:37;;;;;;;3.20;2.90;;;24.70;73.10;;;;;;4952614;29;20470;-73
2022/09/07 08:36:14;;;;;;;3.00;2.70;;;24.70;73.40;;;;;;4952724;29;20493;-73
2022/09/07 08:38:41;;;;;;;2.30;2.10;;;24.60;73.30;;;;;;4951500;29;20443;-72
2022/09/07 08:41:33;;;;;;;2.87;2.30;;;24.60;73.60;;;;;;4968741;28;20407;-72
2022/09/07 08:44:04;;;;;;;3.90;2.40;;;24.60;74.10;;;;;;4935272;29;20451;-72
2022/09/07 08:46:47;;;;;;;2.30;2.07;;;24.60;74.50;;;;;;4952940;29;20415;-71
2022/09/07 08:49:39;;;;;;;4.10;2.80;;;24.60;74.80;;;;;;4936259;29;20486;-72
2022/09/07 08:52:28;;;;;;;5.37;2.30;;;24.60;74.90;;;;;;4952454;28;20466;-72
2022/09/07 08:55:00;;;;;;;3.10;2.30;;;24.50;74.80;;;;;;4952658;29;20867;-73
2022/09/07 08:57:31;;;;;;;2.90;2.30;;;24.60;74.80;;;;;;4936013;29;20498;-72
2022/09/07 09:00:06;;;;;;;2.30;2.10;;;24.50;74.40;;;;;;4952613;29;20458;-72
2022/09/07 09:02:35;;;;;;;2.90;2.07;;;24.50;74.10;;;;;;4953725;28;20434;-72
2022/09/07 09:05:03;;;;;;;2.50;2.27;;;24.50;74.70;;;;;;4952396;28;20858;-72
2022/09/07 09:07:52;;;;;;;2.43;2.20;;;24.50;75.00;;;;;;4955692;28;20438;-72
2022/09/07 09:10:18;;;;;;;2.93;2.63;;;24.50;74.60;;;;;;4973638;28;20477;-72
2022/09/07 09:13:12;;;;;;;5.03;2.17;;;24.50;75.10;;;;;;4975508;28;20812;-72
2022/09/07 09:15:50;;;;;;;3.93;2.10;;;24.50;75.20;;;;;;4976867;28;20213;-72
2022/09/07 09:18:34;;;;;;;2.60;2.30;;;24.50;75.20;;;;;;4959363;28;20990;-73
2022/09/07 09:21:06;;;;;;;2.87;2.37;;;24.50;75.30;;;;;;4976880;28;20815;-73
2022/09/07 09:23:41;;;;;;;2.30;2.10;;;24.50;75.10;;;;;;4967569;28;20461;-71
2022/09/07 09:26:24;;;;;;;3.67;2.07;;;24.50;75.40;;;;;;4955897;29;20410;-70
2022/09/07 09:28:53;;;;;;;2.70;2.30;;;24.50;75.60;;;;;;4955808;29;20449;-75
2022/09/07 09:31:27;;;;;;;2.50;2.30;;;24.50;75.60;;;;;;4955892;29;20399;-71
2022/09/07 09:34:14;;;;;;;2.90;2.10;;;24.50;75.60;;;;;;4954206;29;20455;-72
2022/09/07 09:36:53;;;;;;;2.47;2.07;;;24.50;75.70;;;;;;4956088;29;20487;-72
2022/09/07 09:39:30;;;;;;;2.20;2.00;;;24.50;75.60;;;;;;4956221;28;20454;-73
2022/09/07 09:42:10;;;;;;;2.40;2.20;;;24.50;75.50;;;;;;4956812;28;20949;-70
2022/09/07 09:44:37;;;;;;;3.80;2.23;;;24.50;75.50;;;;;;4955652;29;20480;-71
2022/09/07 09:47:04;;;;;;;2.60;1.90;;;24.50;75.50;;;;;;4955608;29;20442;-71
2022/09/07 09:49:39;;;;;;;2.50;2.30;;;24.50;75.30;;;;;;4955374;29;20430;-70
2022/09/07 09:52:16;;;;;;;4.40;2.20;;;24.50;75.30;;;;;;4956503;29;21000;-70
2022/09/07 09:54:55;;;;;;;2.43;1.90;;;24.50;75.20;;;;;;4955265;29;20442;-70
2022/09/07 09:57:51;;;;;;;1.63;1.53;;;24.50;75.20;;;;;;4955461;29;20806;-70
2022/09/07 10:00:22;;;;;;;2.30;2.10;;;24.50;74.90;;;;;;4956351;29;20904;-70
2022/09/07 10:03:16;;;;;;;2.70;1.83;;;24.60;75.20;;;;;;4956463;29;20435;-71
2022/09/07 10:05:46;;;;;;;3.07;2.40;;;24.60;75.50;;;;;;4939492;29;20427;-70
2022/09/07 10:08:20;;;;;;;2.23;1.63;;;24.60;75.50;;;;;;4957020;28;20454;-74
2022/09/07 10:10:57;;;;;;;2.57;1.97;;;24.60;75.40;;;;;;4975887;28;20438;-70
2022/09/07 10:13:56;;;;;;;2.63;2.00;;;24.60;75.50;;;;;;4938192;28;20545;-71
2022/09/07 10:16:49;;;;;;;2.00;1.90;;;24.60;75.50;;;;;;4974450;28;20445;-71
2022/09/07 10:19:32;;;;;;;1.90;1.77;;;24.60;75.60;;;;;;4973569;28;20610;-70
2022/09/07 10:22:04;;;;;;;2.30;2.10;;;24.60;75.40;;;;;;4957771;28;20442;-73
2022/09/07 10:24:38;;;;;;;2.30;2.10;;;24.70;75.40;;;;;;4990332;28;20509;-72
2022/09/07 10:27:27;;;;;;;2.73;2.30;;;24.70;75.90;;;;;;4958511;28;20446;-71
2022/09/07 10:29:56;;;;;;;2.20;2.00;;;24.70;76.00;;;;;;4989951;28;20394;-71
2022/09/07 10:32:37;;;;;;;2.30;2.10;;;24.60;76.00;;;;;;4974067;28;20458;-71
2022/09/07 10:35:17;;;;;;;4.90;2.20;;;24.60;75.70;;;;;;4974895;28;20989;-71
2022/09/07 10:38:17;;;;;;;2.20;2.00;;;24.70;75.80;;;;;;4958339;28;20501;-72
2022/09/07 10:41:00;;;;;;;3.60;2.00;;;24.70;76.00;;;;;;4938457;28;20523;-73
2022/09/07 10:43:52;;;;;;;2.37;2.17;;;24.70;76.10;;;;;;4954681;29;20466;-72
2022/09/07 10:46:27;;;;;;;2.57;2.37;;;24.70;76.10;;;;;;4937956;29;20463;-73
2022/09/07 10:49:48;;;;;;;2.23;2.00;;;24.70;76.10;;;;;;4927939;29;20799;-75
2022/09/07 10:52:40;;;;;;;2.07;1.90;;;24.70;76.20;;;;;;4938539;29;20921;-73
2022/09/07 10:55:26;;;;;;;1.83;1.73;;;24.70;76.60;;;;;;4954432;29;20814;-73
2022/09/07 10:58:08;;;;;;;2.70;2.20;;;24.70;76.70;;;;;;4955616;28;20435;-74
2022/09/07 11:00:47;;;;;;;2.60;2.40;;;24.70;76.70;;;;;;4954529;29;20937;-74
2022/09/07 11:03:49;;;;;;;2.33;2.17;;;24.70;76.80;;;;;;4955528;28;20442;-73
2022/09/07 11:06:24;;;;;;;4.17;2.80;;;24.70;76.80;;;;;;4954340;29;20771;-74
2022/09/07 11:09:15;;;;;;;2.90;2.70;;;24.70;77.10;;;;;;4955271;28;20809;-75
2022/09/07 11:11:45;;;;;;;2.47;2.27;;;24.70;77.00;;;;;;4955313;28;20865;-75
2022/09/07 11:14:17;;;;;;;3.17;2.80;;;24.80;77.10;;;;;;4938418;29;20462;-75
2022/09/07 11:17:20;;;;;;;2.60;2.40;;;24.80;77.30;;;;;;4953926;29;20846;-75
2022/09/07 11:20:01;;;;;;;2.70;2.50;;;24.80;77.20;;;;;;4955229;28;20426;-75
2022/09/07 11:22:32;;;;;;;2.67;2.47;;;24.80;78.20;;;;;;4954243;29;20917;-75
2022/09/07 11:25:34;;;;;;;2.77;2.43;;;24.90;77.60;;;;;;4873745;28;20461;-74
2022/09/07 11:28:24;;;;;;;3.13;2.60;;;24.80;77.30;;;;;;4938386;29;20429;-74
2022/09/07 11:30:57;;;;;;;3.40;2.17;;;24.90;77.50;;;;;;4937364;29;20440;-75
2022/09/07 11:33:54;;;;;;;2.57;2.37;;;24.90;77.40;;;;;;4952876;28;20468;-75
2022/09/07 11:36:23;;;;;;;3.27;2.90;;;24.90;77.40;;;;;;4953535;29;20478;-75
2022/09/07 11:38:58;;;;;;;3.57;2.93;;;24.90;77.60;;;;;;4953456;29;20415;-75
2022/09/07 11:41:33;;;;;;;3.03;2.40;;;24.90;77.60;;;;;;4953955;29;20512;-76
2022/09/07 11:44:23;;;;;;;3.10;2.10;;;24.90;77.40;;;;;;4954827;28;20530;-75
2022/09/07 11:47:04;;;;;;;2.50;2.30;;;24.90;77.40;;;;;;4953297;28;20446;-75
2022/09/07 11:49:30;;;;;;;2.70;2.50;;;24.90;77.10;;;;;;4953513;28;20426;-74
2022/09/07 11:52:16;;;;;;;2.67;2.33;;;24.90;77.10;;;;;;4953785;29;20467;-75
2022/09/07 11:54:57;;;;;;;3.97;2.93;;;24.90;77.00;;;;;;4962274;28;20207;-76
2022/09/07 11:57:43;;;;;;;4.40;2.70;;;25.00;77.10;;;;;;4948712;29;20447;-76
2022/09/07 12:00:15;;;;;;;2.73;2.53;;;25.00;77.00;;;;;;4951869;29;20455;-76
2022/09/07 12:03:03;;;;;;;3.63;2.80;;;25.00;77.10;;;;;;4950467;29;20415;-76
2022/09/07 12:05:46;;;;;;;3.00;2.40;;;25.00;76.90;;;;;;4952012;28;20445;-75
2022/09/07 12:08:38;;;;;;;2.43;2.27;;;25.00;76.60;;;;;;4950469;28;20450;-76
2022/09/07 12:11:28;;;;;;;2.83;2.13;;;25.00;76.40;;;;;;4951604;29;20808;-77
2022/09/07 12:14:25;;;;;;;3.20;2.60;;;25.00;76.20;;;;;;4950230;29;20451;-76
2022/09/07 12:17:25;;;;;;;2.70;2.43;;;25.00;76.60;;;;;;4950672;29;20419;-75
2022/09/07 12:20:14;;;;;;;2.70;2.30;;;25.00;76.70;;;;;;4934016;29;20448;-75
2022/09/07 12:23:17;;;;;;;2.77;2.53;;;25.00;76.60;;;;;;4950434;29;20931;-76
2022/09/07 12:25:48;;;;;;;2.63;2.43;;;25.00;76.50;;;;;;4950079;29;20457;-78
2022/09/07 12:28:23;;;;;;;2.70;2.50;;;25.00;76.30;;;;;;4949964;29;20416;-75
2022/09/07 12:31:06;;;;;;;4.03;2.73;;;25.10;76.10;;;;;;4950033;29;20979;-76
2022/09/07 12:33:38;;;;;;;4.40;3.10;;;25.00;76.10;;;;;;4934312;29;20536;-76
2022/09/07 12:36:30;;;;;;;2.80;2.43;;;25.10;76.30;;;;;;4951001;29;20423;-76
2022/09/07 12:39:24;;;;;;;4.10;3.70;;;25.10;77.00;;;;;;4964323;28;20458;-76
2022/09/07 12:42:12;;;;;;;3.03;2.80;;;25.10;76.50;;;;;;4970607;28;20412;-76
2022/09/07 12:44:38;;;;;;;3.80;3.40;;;25.10;76.60;;;;;;4959681;28;20554;-75
2022/09/07 12:47:09;;;;;;;4.23;3.23;;;25.20;76.80;;;;;;4969649;28;20811;-76
2022/09/07 12:50:13;;;;;;;3.43;2.80;;;25.10;76.70;;;;;;4970405;28;20494;-76
2022/09/07 12:52:44;;;;;;;3.10;2.47;;;25.20;76.60;;;;;;4970305;28;20816;-76
2022/09/07 12:55:36;;;;;;;4.30;3.30;;;25.20;76.30;;;;;;4957228;28;20550;-76
2022/09/07 12:58:50;;;;;;;3.43;2.80;;;25.20;75.90;;;;;;4949253;28;20431;-76
2022/09/07 13:01:24;;;;;;;6.60;3.60;;;25.20;75.60;;;;;;4937484;29;20918;-76
2022/09/07 13:03:58;;;;;;;3.80;3.10;;;25.20;75.50;;;;;;4949827;29;20442;-76
2022/09/07 13:06:48;;;;;;;2.93;2.63;;;25.20;75.70;;;;;;4934079;29;20835;-76
2022/09/07 13:09:42;;;;;;;3.37;2.90;;;25.20;75.70;;;;;;4949975;29;20457;-75
2022/09/07 13:12:43;;;;;;;4.90;3.00;;;25.20;75.50;;;;;;4929288;29;20487;-75
2022/09/07 13:15:32;;;;;;;2.87;2.67;;;25.20;75.30;;;;;;4930410;29;20452;-76
2022/09/07 13:17:58;;;;;;;2.50;2.30;;;25.20;75.20;;;;;;4931474;29;20400;-75
2022/09/07 13:20:31;;;;;;;4.33;2.60;;;25.30;75.20;;;;;;4946990;28;20427;-75
2022/09/07 13:23:35;;;;;;;3.00;2.80;;;25.30;75.00;;;;;;4947952;29;20449;-75
2022/09/07 13:26:32;;;;;;;3.40;2.50;;;25.30;75.00;;;;;;4942697;28;20497;-75
2022/09/07 13:29:03;;;;;;;3.50;2.80;;;25.30;74.90;;;;;;4959545;28;20506;-75
2022/09/07 13:32:01;;;;;;;2.87;2.67;;;25.30;74.80;;;;;;4952461;29;20462;-74